createdAt,value
2022-08-10T00:00:56.321Z,101941.34
2022-08-10T00:05:58.068Z,101928.19
2022-08-10T00:11:00.100Z,101927.88
2022-08-10T00:16:05.481Z,101922.28
2022-08-10T00:21:08.707Z,101917.00
2022-08-10T00:26:10.763Z,101920.34
2022-08-10T00:31:12.847Z,101914.28
2022-08-10T00:36:14.865Z,101918.41
2022-08-10T00:41:16.796Z,101907.09
2022-08-10T00:46:18.557Z,101915.63
2022-08-10T00:51:20.564Z,101910.34
2022-08-10T00:57:15.154Z,101905.56
2022-08-10T01:02:10.728Z,101897.63
2022-08-10T01:07:51.594Z,101899.66
2022-08-10T01:13:33.721Z,101901.28
2022-08-10T01:18:58.510Z,101901.50
2022-08-10T01:24:17.832Z,101897.09
2022-08-10T01:29:42.393Z,101896.94
2022-08-10T01:34:55.625Z,101885.75
2022-08-10T01:40:00.356Z,101890.28
2022-08-10T01:45:05.508Z,101887.94
2022-08-10T01:50:14.109Z,101893.06
2022-08-10T01:55:17.854Z,101883.91
2022-08-10T02:00:20.269Z,101882.09
2022-08-10T02:05:25.168Z,101870.00
2022-08-10T02:10:29.467Z,101877.00
2022-08-10T02:15:34.001Z,101874.22
2022-08-10T02:20:43.917Z,101872.28
2022-08-10T02:25:48.115Z,101875.19
2022-08-10T02:30:53.439Z,101876.72
2022-08-10T02:35:57.508Z,101874.03
2022-08-10T02:45:13.649Z,101886.56
2022-08-10T02:46:45.482Z,101888.84
2022-08-10T02:52:11.802Z,101878.53
2022-08-10T02:57:23.267Z,101876.25
2022-08-10T03:02:39.648Z,101876.47
2022-08-10T03:07:52.105Z,101876.81
2022-08-10T03:12:59.758Z,101870.00
2022-08-10T03:18:03.207Z,101868.16
2022-08-10T03:23:07.729Z,101869.34
2022-08-10T03:28:11.263Z,101869.34
2022-08-10T03:33:22.657Z,101883.09
2022-08-10T03:38:24.803Z,101880.00
2022-08-10T03:43:27.715Z,101872.34
2022-08-10T03:48:47.216Z,101869.66
2022-08-10T03:54:04.974Z,101858.13
2022-08-10T03:59:11.436Z,101868.88
2022-08-10T04:04:17.819Z,101870.72
2022-08-10T04:09:42.831Z,101869.28
2022-08-10T04:14:52.439Z,101877.94
2022-08-10T04:19:58.290Z,101872.75
2022-08-10T04:25:05.351Z,101879.00
2022-08-10T04:30:08.172Z,101877.59
2022-08-10T04:35:11.310Z,101878.53
2022-08-10T04:40:29.000Z,101879.59
2022-08-10T04:45:47.806Z,101880.47
2022-08-10T04:50:53.742Z,101883.06
2022-08-10T04:55:55.718Z,101882.28
2022-08-10T05:00:57.934Z,101888.66
2022-08-10T05:06:00.076Z,101892.66
2022-08-10T05:11:03.589Z,101893.19
2022-08-10T05:16:05.701Z,101885.84
2022-08-10T05:21:07.860Z,101890.06
2022-08-10T05:26:09.986Z,101887.38
2022-08-10T05:31:12.286Z,101892.88
2022-08-10T05:36:21.414Z,101889.47
2022-08-10T05:41:23.816Z,101882.16
2022-08-10T05:46:26.075Z,101896.47
2022-08-10T05:51:29.758Z,101893.69
2022-08-10T05:56:56.611Z,101894.84
2022-08-10T06:02:31.477Z,101890.72
2022-08-10T06:07:21.801Z,101899.94
2022-08-10T06:12:35.192Z,101901.22
2022-08-10T06:18:01.616Z,101899.63
2022-08-10T06:23:04.886Z,101909.22
2022-08-10T06:28:09.317Z,101903.41
2022-08-10T06:33:12.924Z,101915.94
2022-08-10T06:38:17.075Z,101912.25
2022-08-10T06:43:22.642Z,101916.97
2022-08-10T06:48:35.012Z,101918.63
2022-08-10T06:53:53.192Z,101913.94
2022-08-10T06:59:03.893Z,101912.75
2022-08-10T07:04:11.543Z,101915.63
2022-08-10T07:09:15.842Z,101911.56
2022-08-10T07:14:19.027Z,101915.88
2022-08-10T07:19:22.257Z,101911.47
2022-08-10T07:24:26.308Z,101908.69
2022-08-10T07:29:53.472Z,101906.28
2022-08-10T07:34:55.369Z,101920.84
2022-08-10T07:40:03.430Z,101926.81
2022-08-10T07:45:07.099Z,101923.66
2022-08-10T07:50:12.335Z,101926.00
2022-08-10T07:55:18.703Z,101936.13
2022-08-10T08:00:21.620Z,101940.31
2022-08-10T08:05:57.601Z,101934.38
2022-08-10T08:10:49.350Z,101943.28
2022-08-10T08:16:18.014Z,101934.88
2022-08-10T08:24:10.785Z,101932.28
2022-08-10T08:26:39.107Z,101928.63
2022-08-10T08:31:54.281Z,101933.25
2022-08-10T08:37:05.689Z,101923.03
2022-08-10T08:42:10.325Z,101923.03
2022-08-10T08:48:04.325Z,101921.41
2022-08-10T08:52:59.662Z,101919.59
2022-08-10T08:58:29.382Z,101921.41
2022-08-10T09:03:46.211Z,101912.25
2022-08-10T09:09:33.645Z,101902.34
2022-08-10T09:14:49.078Z,101905.69
2022-08-10T09:20:19.598Z,101898.69
2022-08-10T09:25:30.587Z,101898.81
2022-08-10T09:30:52.428Z,101897.84
2022-08-10T09:36:32.861Z,101890.50
2022-08-10T09:41:42.153Z,101887.63
2022-08-10T09:47:08.180Z,101880.94
2022-08-10T09:52:29.204Z,101872.63
2022-08-10T09:58:02.104Z,101870.47
2022-08-10T10:03:47.337Z,101869.19
2022-08-10T10:08:58.322Z,101858.00
2022-08-10T10:14:26.034Z,101854.81
2022-08-10T10:20:01.134Z,101847.59
2022-08-10T10:25:50.021Z,101840.75
2022-08-10T10:31:27.828Z,101833.91
2022-08-10T10:36:31.150Z,101831.75
2022-08-10T10:41:56.508Z,101814.09
2022-08-10T10:47:06.893Z,101814.28
2022-08-10T10:52:41.172Z,101804.25
2022-08-10T10:57:59.434Z,101809.19
2022-08-10T11:03:28.976Z,101801.09
2022-08-10T11:08:43.524Z,101800.25
2022-08-10T11:14:24.714Z,101794.88
2022-08-10T11:20:00.464Z,101784.66
2022-08-10T11:25:19.948Z,101780.25
2022-08-10T11:30:31.625Z,101782.25
2022-08-10T11:35:54.073Z,101773.22
2022-08-10T11:41:05.617Z,101769.06
2022-08-10T11:46:36.701Z,101760.53
2022-08-10T11:51:57.580Z,101753.31
2022-08-10T11:57:02.511Z,101760.00
2022-08-10T12:02:09.706Z,101745.75
2022-08-10T12:08:54.970Z,101749.44
2022-08-10T12:12:41.354Z,101744.91
2022-08-10T12:17:48.838Z,101745.56
2022-08-10T12:22:57.218Z,101738.25
2022-08-10T12:28:09.512Z,101727.56
2022-08-10T12:33:26.959Z,101725.31
2022-08-10T12:38:41.081Z,101721.94
2022-08-10T12:44:05.051Z,101717.22
2022-08-10T12:49:20.223Z,101711.50
2022-08-10T12:54:32.527Z,101712.81
2022-08-10T12:59:43.282Z,101703.09
2022-08-10T13:04:49.645Z,101693.97
2022-08-10T13:09:55.667Z,101691.25
2022-08-10T13:15:45.101Z,101689.53
2022-08-10T13:20:35.588Z,101686.31
2022-08-10T13:29:14.068Z,101664.19
2022-08-10T13:34:42.924Z,101663.88
2022-08-10T13:39:57.907Z,101660.63
2022-08-10T13:45:17.529Z,101650.06
2022-08-10T13:50:33.449Z,101648.66
2022-08-10T13:55:53.835Z,101646.28
2022-08-10T14:01:00.315Z,101634.97
2022-08-10T14:06:04.477Z,101627.78
2022-08-10T14:11:12.451Z,101629.16
2022-08-10T14:16:15.848Z,101625.84
2022-08-10T14:21:17.990Z,101621.50
2022-08-10T14:26:23.406Z,101615.38
2022-08-10T14:31:31.383Z,101606.53
2022-08-10T14:36:59.413Z,101604.88
2022-08-10T14:42:16.760Z,101597.53
2022-08-10T14:47:54.231Z,101593.38
2022-08-10T14:52:53.087Z,101592.44
2022-08-10T14:58:19.073Z,101590.06
2022-08-10T15:03:59.565Z,101571.53
2022-08-10T15:08:42.760Z,101584.09
2022-08-10T15:14:14.740Z,101572.13
2022-08-10T15:20:01.549Z,101571.91
2022-08-10T15:24:56.183Z,101562.44
2022-08-10T15:29:58.961Z,101555.22
2022-08-10T15:35:20.721Z,101551.13
2022-08-10T15:40:35.959Z,101559.44
2022-08-10T15:45:55.947Z,101558.44
2022-08-10T15:51:10.240Z,101549.44
2022-08-10T15:56:28.190Z,101545.03
2022-08-10T16:02:14.481Z,101542.56
2022-08-10T16:07:12.418Z,101541.88
2022-08-10T16:12:39.269Z,101530.50
2022-08-10T16:17:57.580Z,101532.09
2022-08-10T16:23:03.786Z,101531.34
2022-08-10T16:28:09.879Z,101525.44
2022-08-10T16:33:53.420Z,101525.50
2022-08-10T16:38:54.248Z,101521.88
2022-08-10T16:43:59.633Z,101522.00
2022-08-10T16:49:02.755Z,101522.25
2022-08-10T16:54:07.473Z,101518.59
2022-08-10T16:59:10.347Z,101520.53
2022-08-10T17:04:22.159Z,101515.84
2022-08-10T17:09:30.594Z,101517.97
2022-08-10T17:14:32.464Z,101509.69
2022-08-10T17:19:45.088Z,101510.88
2022-08-10T17:24:53.106Z,101503.97
2022-08-10T17:30:03.796Z,101507.19
2022-08-10T17:35:11.670Z,101505.16
2022-08-10T17:40:22.718Z,101503.50
2022-08-10T17:45:48.683Z,101507.22
2022-08-10T17:50:53.167Z,101509.34
2022-08-10T17:55:58.154Z,101499.97
2022-08-10T18:01:38.909Z,101496.41
2022-08-10T18:06:25.843Z,101507.03
2022-08-10T18:11:31.352Z,101498.34
2022-08-10T18:16:34.657Z,101496.91
2022-08-10T18:21:43.862Z,101496.03
2022-08-10T18:26:51.253Z,101502.78
2022-08-10T18:32:00.074Z,101509.56
2022-08-10T18:37:05.640Z,101509.50
2022-08-10T18:42:15.245Z,101512.34
2022-08-10T18:47:25.749Z,101513.19
2022-08-10T18:52:31.999Z,101514.41
2022-08-10T18:58:04.467Z,101520.03
2022-08-10T19:03:53.722Z,101518.63
2022-08-10T19:09:45.996Z,101529.16
2022-08-10T19:14:51.746Z,101528.31
2022-08-10T19:20:08.870Z,101535.28
2022-08-10T19:26:40.699Z,101532.53
2022-08-10T19:31:15.361Z,101542.13
2022-08-10T19:36:35.850Z,101536.84
2022-08-10T19:41:54.370Z,101548.56
2022-08-10T19:47:03.299Z,101555.91
2022-08-10T19:52:30.533Z,101549.03
2022-08-10T19:57:44.652Z,101561.31
2022-08-10T20:03:23.115Z,101557.00
2022-08-10T20:08:31.829Z,101560.34
2022-08-10T20:14:22.236Z,101565.50
2022-08-10T20:19:52.492Z,101566.19
2022-08-10T20:25:20.881Z,101562.00
2022-08-10T20:30:27.417Z,101559.50
2022-08-10T20:35:43.869Z,101567.22
2022-08-10T20:41:14.134Z,101562.84
2022-08-10T20:46:24.654Z,101564.69
2022-08-10T20:51:58.635Z,101573.81
2022-08-10T20:58:04.053Z,101575.53
2022-08-10T21:02:35.487Z,101573.84
2022-08-10T21:08:01.811Z,101581.44
2022-08-10T21:13:43.145Z,101568.94
2022-08-10T21:19:08.962Z,101579.72
2022-08-10T21:24:28.609Z,101569.66
2022-08-10T21:29:56.094Z,101565.28
2022-08-10T21:35:10.166Z,101569.53
2022-08-10T21:41:18.211Z,101572.66
2022-08-10T21:47:02.631Z,101573.03
2022-08-10T21:52:33.480Z,101566.19
2022-08-10T21:58:23.037Z,101560.78
2022-08-10T22:03:48.139Z,101547.03
2022-08-10T22:09:22.120Z,101549.28
2022-08-10T22:14:48.431Z,101544.63
2022-08-10T22:20:49.582Z,101538.78
2022-08-10T22:26:35.499Z,101545.94
2022-08-10T22:32:22.223Z,101545.09
2022-08-10T22:38:07.634Z,101546.56
2022-08-10T22:43:45.196Z,101536.53
2022-08-10T22:49:01.039Z,101543.78
2022-08-10T22:54:31.821Z,101539.88
2022-08-10T22:59:34.075Z,101542.88
2022-08-10T23:04:45.330Z,101541.41
2022-08-10T23:09:57.670Z,101542.50
2022-08-10T23:15:20.997Z,101544.22
2022-08-10T23:20:24.593Z,101549.47
2022-08-10T23:25:33.019Z,101546.06
2022-08-10T23:30:37.483Z,101546.34
2022-08-10T23:36:30.368Z,101538.53
2022-08-10T23:41:24.999Z,101533.59
2022-08-10T23:46:30.792Z,101530.16
2022-08-10T23:51:38.729Z,101525.03
2022-08-10T23:57:01.496Z,101530.88
